Time;durP1;ratioP1;P1;durP2;ratioP2;P2;SDS_P1;SDS_P2;PMS_P1;PMS_P2;Temp;Humidity;BMP_temperature;BMP_pressure;BME280_temperature;BME280_humidity;BME280_pressure;Samples;Min_cycle;Max_cycle;Signal;HPM_P1;HPM_P2
2022/04/22 00:01:11;;;;;;;12.03;8.83;;;;;;;11.38;100.00;94306.22;5033010;28;20232;-64
2022/04/22 00:03:37;;;;;;;13.07;9.20;;;;;;;11.35;100.00;94303.19;5033870;28;20252;-65
2022/04/22 00:06:03;;;;;;;12.47;9.33;;;;;;;11.38;100.00;94300.34;5032904;28;20181;-66
2022/04/22 00:08:28;;;;;;;15.63;9.70;;;;;;;11.53;100.00;94309.88;5033075;28;20210;-63
2022/04/22 00:13:38;;;;;;;12.60;9.03;;;;;;;11.46;100.00;94324.13;5032994;28;20217;-60
2022/04/22 00:16:03;;;;;;;14.03;9.10;;;;;;;11.47;100.00;94313.00;5032944;28;20230;-63
2022/04/22 00:18:31;;;;;;;12.57;8.83;;;;;;;11.61;100.00;94320.16;5032873;28;20209;-62
2022/04/22 00:20:56;;;;;;;12.63;9.77;;;;;;;11.48;100.00;94314.59;5032779;28;20185;-65
2022/04/22 00:23:22;;;;;;;16.83;9.83;;;;;;;11.39;100.00;94289.22;5032731;28;20202;-63
2022/04/22 00:25:47;;;;;;;12.97;9.30;;;;;;;11.35;100.00;94272.66;5032821;28;20563;-64
2022/04/22 00:28:13;;;;;;;18.30;10.10;;;;;;;11.39;100.00;94274.72;5032847;28;20202;-61
2022/04/22 00:30:38;;;;;;;14.13;9.23;;;;;;;11.50;100.00;94258.47;5039886;23;20619;-64
2022/04/22 00:33:04;;;;;;;13.93;10.23;;;;;;;11.65;100.00;94257.00;5032402;28;20737;-64
2022/04/22 00:35:29;;;;;;;12.47;9.83;;;;;;;11.66;100.00;94267.09;5032176;28;20645;-63
2022/04/22 00:37:55;;;;;;;14.57;10.53;;;;;;;11.59;100.00;94275.41;5032165;28;20668;-62
2022/04/22 00:40:20;;;;;;;12.70;9.70;;;;;;;11.67;100.00;94280.63;5032331;28;20170;-65
2022/04/22 00:42:46;;;;;;;13.43;9.03;;;;;;;11.62;100.00;94283.56;5032225;28;20197;-64
2022/04/22 00:45:12;;;;;;;10.50;8.57;;;;;;;11.61;100.00;94297.25;5039030;23;20240;-63
2022/04/22 00:47:38;;;;;;;13.37;9.13;;;;;;;11.53;100.00;94284.41;5032181;28;20198;-65
2022/04/22 00:50:04;;;;;;;15.53;8.20;;;;;;;11.55;100.00;94285.06;5032733;28;20266;-64
2022/04/22 00:52:30;;;;;;;13.30;8.70;;;;;;;11.68;100.00;94297.47;5032277;28;20216;-62
2022/04/22 00:54:56;;;;;;;12.03;8.40;;;;;;;11.43;100.00;94288.00;5032529;28;20589;-63
2022/04/22 00:57:22;;;;;;;11.43;8.73;;;;;;;11.37;100.00;94265.66;5031804;28;20216;-64
2022/04/22 00:59:48;;;;;;;13.17;9.40;;;;;;;11.50;100.00;94251.63;5032183;28;20636;-63
2022/04/22 01:02:14;;;;;;;11.83;7.77;;;;;;;11.52;100.00;94249.75;5031772;28;20202;-62
2022/04/22 01:10:08;;;;;;;12.97;9.47;;;;;;;11.40;100.00;94214.47;5039093;23;20252;-63
2022/04/22 01:12:34;;;;;;;12.73;8.83;;;;;;;11.38;100.00;94229.88;5031994;28;20232;-64
2022/04/22 01:15:00;;;;;;;8.80;7.37;;;;;;;11.21;100.00;94257.88;5032115;28;20221;-62
2022/04/22 01:17:26;;;;;;;10.27;7.00;;;;;;;11.04;100.00;94243.38;5031635;28;20257;-61
2022/04/22 01:19:59;;;;;;;10.50;7.67;;;;;;;11.01;100.00;94224.09;5031727;28;20216;-64
2022/04/22 01:22:25;;;;;;;10.97;6.73;;;;;;;11.04;100.00;94215.38;5031756;28;20243;-62
2022/04/22 01:24:57;;;;;;;10.03;6.13;;;;;;;10.92;100.00;94215.59;5030662;28;20177;-60
2022/04/22 01:27:24;;;;;;;8.73;5.80;;;;;;;10.84;100.00;94190.09;5032045;28;20198;-62
2022/04/22 01:29:49;;;;;;;6.90;5.40;;;;;;;10.66;100.00;94175.72;5030532;28;20186;-63
2022/04/22 01:32:15;;;;;;;9.77;5.90;;;;;;;10.77;100.00;94167.91;5030268;28;20684;-62
2022/04/22 01:34:42;;;;;;;9.27;5.57;;;;;;;10.94;100.00;94164.59;5031728;28;20198;-64
2022/04/22 01:37:08;;;;;;;7.80;5.60;;;;;;;10.86;100.00;94152.59;5031672;28;20194;-63
2022/04/22 01:39:33;;;;;;;8.03;5.23;;;;;;;10.81;100.00;94156.50;5031558;28;20175;-61
2022/04/22 01:41:59;;;;;;;9.63;5.47;;;;;;;10.76;100.00;94161.22;5031635;28;20190;-64
2022/04/22 01:44:25;;;;;;;7.43;4.83;;;;;;;10.69;100.00;94165.25;5031572;28;20170;-61
2022/04/22 01:46:52;;;;;;;10.23;5.60;;;;;;;10.69;100.00;94165.25;5031474;28;20194;-64
2022/04/22 01:49:18;;;;;;;9.63;5.10;;;;;;;10.58;100.00;94163.75;5031778;28;20644;-64
2022/04/22 01:51:43;;;;;;;8.23;5.63;;;;;;;10.64;100.00;94164.91;5031604;28;20709;-61
2022/04/22 01:54:09;;;;;;;7.17;4.90;;;;;;;10.65;100.00;94169.03;5031451;28;20182;-64
2022/04/22 01:56:35;;;;;;;7.33;5.47;;;;;;;10.78;100.00;94183.03;5031285;28;20292;-63
2022/04/22 01:59:00;;;;;;;8.93;5.57;;;;;;;10.94;100.00;94197.66;5032142;28;20182;-61
2022/04/22 02:01:25;;;;;;;6.57;5.60;;;;;;;10.77;100.00;94188.22;5031283;28;20277;-64
2022/04/22 02:03:51;;;;;;;11.73;5.97;;;;;;;10.83;100.00;94202.91;5013674;28;20193;-63
2022/04/22 02:06:16;;;;;;;9.03;5.40;;;;;;;10.69;100.00;94194.03;5031301;28;20713;-63
2022/04/22 02:08:42;;;;;;;10.50;6.30;;;;;;;10.54;100.00;94207.38;5031649;28;20206;-62
2022/04/22 02:11:07;;;;;;;7.33;6.57;;;;;;;10.55;100.00;94211.50;5031207;28;20183;-62
2022/04/22 02:13:36;;;;;;;11.97;8.27;;;;;;;10.56;100.00;94221.53;5031740;28;20187;-63
2022/04/22 02:16:03;;;;;;;12.23;8.67;;;;;;;10.61;100.00;94223.63;5031450;28;20292;-63
2022/04/22 02:18:28;;;;;;;10.83;8.67;;;;;;;10.66;100.00;94226.56;5034015;28;20213;-62
2022/04/22 02:20:54;;;;;;;11.70;8.30;;;;;;;10.81;100.00;94236.13;5035082;28;20170;-61
2022/04/22 02:23:19;;;;;;;12.70;9.17;;;;;;;10.72;100.00;94231.09;5035079;28;20256;-65
2022/04/22 02:25:45;;;;;;;12.13;10.23;;;;;;;10.73;100.00;94227.59;5034889;28;20697;-62
2022/04/22 02:30:54;;;;;;;10.87;8.60;;;;;;;10.69;100.00;94216.91;5034885;28;20169;-62
2022/04/22 02:33:20;;;;;;;10.63;8.87;;;;;;;10.61;100.00;94191.41;5041990;23;21387;-63
2022/04/22 02:35:45;;;;;;;12.77;9.00;;;;;;;10.67;100.00;94198.47;5034633;28;20599;-65
2022/04/22 02:38:11;;;;;;;13.87;9.30;;;;;;;10.85;100.00;94198.50;5034607;28;20205;-63
2022/04/22 02:46:04;;;;;;;11.60;8.80;;;;;;;10.71;100.00;94194.69;5034800;28;20174;-62
2022/04/22 02:48:29;;;;;;;13.03;9.17;;;;;;;10.74;100.00;94194.44;5034802;28;20687;-64
2022/04/22 02:50:55;;;;;;;11.70;8.50;;;;;;;10.72;100.00;94195.50;5034504;28;20566;-63
2022/04/22 02:53:22;;;;;;;8.97;7.33;;;;;;;10.91;100.00;94238.59;5034477;28;20206;-63
2022/04/22 02:55:50;;;;;;;7.20;5.97;;;;;;;10.87;100.00;94219.50;5034235;28;20304;-61
2022/04/22 02:58:17;;;;;;;7.20;5.73;;;;;;;10.60;100.00;94186.47;5042214;23;20249;-62
2022/04/22 03:00:43;;;;;;;10.60;6.63;;;;;;;10.73;100.00;94197.09;5034402;28;20274;-64
2022/04/22 03:03:08;;;;;;;9.07;6.77;;;;;;;10.78;100.00;94192.38;5033995;28;20202;-63
2022/04/22 03:05:34;;;;;;;8.50;6.27;;;;;;;10.93;100.00;94198.56;5034388;28;20558;-60
2022/04/22 03:08:01;;;;;;;8.40;5.80;;;;;;;10.86;100.00;94185.66;5034398;28;20213;-64
2022/04/22 03:10:27;;;;;;;8.60;6.03;;;;;;;11.10;100.00;94200.34;5034121;28;20186;-60
2022/04/22 03:12:52;;;;;;;9.33;6.70;;;;;;;10.98;100.00;94199.78;5034370;28;20209;-61
2022/04/22 03:15:18;;;;;;;6.63;5.80;;;;;;;10.71;100.00;94188.81;5033955;28;20692;-61
2022/04/22 03:17:44;;;;;;;9.07;5.70;;;;;;;10.82;100.00;94203.88;5034115;28;20578;-64
2022/04/22 03:20:10;;;;;;;9.20;5.60;;;;;;;10.80;100.00;94193.84;5032442;28;20573;-64
2022/04/22 03:22:36;;;;;;;7.27;6.03;;;;;;;10.81;100.00;94203.06;5033778;28;20217;-62
2022/04/22 03:25:02;;;;;;;10.63;6.03;;;;;;;10.84;100.00;94212.16;5033982;28;20175;-64
2022/04/22 03:27:27;;;;;;;7.57;5.30;;;;;;;10.87;100.00;94224.56;5034163;28;20217;-64
2022/04/22 03:29:53;;;;;;;7.30;5.40;;;;;;;11.08;100.00;94239.59;5033283;28;20182;-61
2022/04/22 03:32:19;;;;;;;7.57;6.23;;;;;;;11.04;100.00;94234.00;5034058;28;20213;-61
2022/04/22 03:34:44;;;;;;;7.90;6.10;;;;;;;10.77;100.00;94200.94;5040601;23;20765;-62
2022/04/22 03:37:10;;;;;;;7.63;5.83;;;;;;;10.82;100.00;94216.59;5033558;28;20206;-64
2022/04/22 03:39:35;;;;;;;10.00;5.97;;;;;;;10.94;100.00;94228.16;5033963;28;20213;-64
2022/04/22 03:42:01;;;;;;;10.80;7.07;;;;;;;10.66;100.00;94213.88;5033344;28;20205;-62
2022/04/22 03:44:27;;;;;;;8.87;7.27;;;;;;;10.73;100.00;94236.03;5033573;28;20625;-64
2022/04/22 03:46:52;;;;;;;11.37;7.57;;;;;;;10.63;100.00;94231.91;5033104;28;20216;-61
2022/04/22 03:49:18;;;;;;;8.57;7.43;;;;;;;10.71;100.00;94221.84;5032003;28;20200;-61
2022/04/22 03:51:44;;;;;;;9.40;8.00;;;;;;;10.80;100.00;94236.28;5033290;28;20552;-62
2022/04/22 03:54:09;;;;;;;16.00;8.87;;;;;;;10.72;100.00;94211.56;5033559;28;20703;-61
2022/04/22 03:59:19;;;;;;;13.77;9.53;;;;;;;10.63;100.00;94252.25;5033570;28;20200;-63
2022/04/22 04:01:44;;;;;;;11.83;9.37;;;;;;;10.82;100.00;94239.47;5033044;28;20281;-61
2022/04/22 04:04:10;;;;;;;13.23;8.97;;;;;;;10.65;100.00;94245.28;5015139;28;20186;-62
2022/04/22 04:06:36;;;;;;;12.37;9.13;;;;;;;10.75;100.00;94246.84;5033053;28;20201;-61
2022/04/22 04:17:14;;;;;;;11.63;9.87;;;;;;;10.50;100.00;94219.56;5033072;28;20291;-63
2022/04/22 04:25:09;;;;;;;14.50;11.00;;;;;;;10.42;100.00;94228.81;5033483;28;20224;-61
2022/04/22 04:27:36;;;;;;;13.33;10.50;;;;;;;10.29;100.00;94223.22;5032517;28;20268;-62
2022/04/22 04:30:03;;;;;;;11.73;10.30;;;;;;;10.38;100.00;94219.88;5031442;28;20644;-61
2022/04/22 04:32:28;;;;;;;13.13;10.40;;;;;;;10.55;100.00;94219.91;5032463;28;20281;-62
2022/04/22 04:34:54;;;;;;;14.87;10.70;;;;;;;10.68;100.00;94204.34;5032287;28;20291;-61
2022/04/22 04:37:20;;;;;;;12.07;10.67;;;;;;;10.68;100.00;94207.69;5031085;28;20218;-61
2022/04/22 04:39:45;;;;;;;13.40;10.27;;;;;;;10.77;100.00;94206.03;5032745;28;20193;-62
2022/04/22 04:42:11;;;;;;;12.00;10.13;;;;;;;10.87;100.00;94206.78;5030159;28;20687;-63
2022/04/22 04:44:38;;;;;;;12.23;9.97;;;;;;;10.96;100.00;94203.38;5031131;28;20283;-62
2022/04/22 04:47:05;;;;;;;13.83;9.73;;;;;;;11.08;100.00;94198.91;5032033;28;20248;-65
2022/04/22 04:49:30;;;;;;;13.07;9.93;;;;;;;10.93;100.00;94201.94;5032304;28;20698;-63
2022/04/22 04:51:57;;;;;;;13.50;10.57;;;;;;;10.98;100.00;94209.13;5032229;28;20202;-64
2022/04/22 04:54:23;;;;;;;11.60;10.10;;;;;;;10.88;100.00;94206.66;5032708;28;20182;-62
2022/04/22 04:56:50;;;;;;;11.87;8.93;;;;;;;11.64;100.00;94205.28;5047382;28;20212;-60
2022/04/22 04:59:16;;;;;;;13.43;10.30;;;;;;;12.07;100.00;94216.44;5032332;28;20670;-62
2022/04/22 05:01:42;;;;;;;9.13;7.90;;;;;;;11.79;100.00;94200.50;5032371;28;20209;-64
2022/04/22 05:04:07;;;;;;;11.03;8.10;;;;;;;11.61;100.00;94217.53;5032325;28;20668;-63
2022/04/22 05:06:33;;;;;;;10.20;7.23;;;;;;;11.49;100.00;94244.16;5031911;28;20234;-60
2022/04/22 05:08:58;;;;;;;12.77;7.87;;;;;;;11.09;100.00;94214.00;5030813;28;20194;-61
2022/04/22 05:11:24;;;;;;;10.50;7.73;;;;;;;10.94;100.00;94185.75;5031955;28;20170;-63
2022/04/22 05:13:49;;;;;;;10.83;7.93;;;;;;;10.91;100.00;94191.09;5032004;28;20596;-61
2022/04/22 05:16:15;;;;;;;11.47;7.43;;;;;;;10.82;100.00;94176.72;5031927;28;20201;-63
2022/04/22 05:18:41;;;;;;;9.97;7.87;;;;;;;10.81;100.00;94161.56;5031986;28;20183;-63
2022/04/22 05:21:07;;;;;;;10.33;7.40;;;;;;;10.88;100.00;94162.63;5032116;28;20652;-60
2022/04/22 05:23:33;;;;;;;10.33;7.87;;;;;;;10.70;100.00;94156.72;5031754;28;20259;-62
2022/04/22 05:26:01;;;;;;;10.57;7.33;;;;;;;10.59;100.00;94151.81;5014264;28;20690;-64
2022/04/22 05:28:28;;;;;;;10.73;8.03;;;;;;;10.58;100.00;94150.22;5032179;28;20288;-61
2022/04/22 05:33:37;;;;;;;10.07;7.07;;;;;;;10.56;100.00;94129.25;5031835;28;20237;-64
2022/04/22 05:36:04;;;;;;;9.33;7.33;;;;;;;10.64;100.00;94109.00;5032323;28;20233;-63
2022/04/22 05:38:30;;;;;;;11.27;7.80;;;;;;;10.67;100.00;94099.31;5031592;28;20267;-63
2022/04/22 05:40:55;;;;;;;8.43;7.13;;;;;;;10.62;100.00;94068.47;5031746;28;20653;-63
2022/04/22 05:43:20;;;;;;;11.53;7.07;;;;;;;10.73;100.00;94042.81;5031510;28;20623;-60
2022/04/22 05:45:46;;;;;;;11.93;8.67;;;;;;;10.83;100.00;94040.19;5031536;28;20630;-60
2022/04/22 05:48:11;;;;;;;12.43;8.93;;;;;;;10.70;100.00;94015.16;5031788;28;20199;-61
2022/04/22 05:50:37;;;;;;;14.23;9.40;;;;;;;10.80;100.00;94045.59;5031510;28;20185;-62
2022/04/22 05:53:03;;;;;;;12.17;9.33;;;;;;;10.82;100.00;94039.44;5033093;28;20198;-60
2022/04/22 05:55:29;;;;;;;12.07;8.80;;;;;;;10.74;100.00;94036.81;5035317;28;20210;-61
2022/04/22 05:57:55;;;;;;;13.40;9.53;;;;;;;10.86;100.00;94022.13;5033974;28;20198;-62
2022/04/22 06:00:23;;;;;;;11.07;8.33;;;;;;;10.90;100.00;94025.97;5035458;28;20178;-63
2022/04/22 06:02:49;;;;;;;11.57;9.13;;;;;;;11.01;100.00;94035.88;5035109;28;20194;-63
2022/04/22 06:05:17;;;;;;;13.10;9.47;;;;;;;11.07;100.00;94048.03;5035639;28;20651;-63
2022/04/22 06:07:44;;;;;;;11.47;9.23;;;;;;;11.16;100.00;94039.50;5035113;28;20206;-61
2022/04/22 06:12:55;;;;;;;12.53;8.50;;;;;;;11.05;100.00;94054.22;5035185;28;20694;-61
2022/04/22 06:15:21;;;;;;;12.43;8.60;;;;;;;11.06;100.00;94061.69;5033670;28;20300;-62
2022/04/22 06:17:47;;;;;;;12.33;8.13;;;;;;;10.99;100.00;94046.22;5034867;28;20198;-62
2022/04/22 06:20:13;;;;;;;10.10;7.83;;;;;;;10.99;100.00;94017.44;5035727;28;20197;-62
2022/04/22 06:22:39;;;;;;;11.10;7.60;;;;;;;11.16;100.00;94026.78;5034851;28;20289;-61
2022/04/22 06:25:07;;;;;;;10.27;7.43;;;;;;;11.24;100.00;94041.31;5033885;28;20191;-62
2022/04/22 06:27:34;;;;;;;8.23;6.53;;;;;;;11.08;100.00;94086.97;5034727;28;20687;-63
2022/04/22 06:30:08;;;;;;;6.87;6.13;;;;;;;10.94;100.00;94062.88;5033307;28;20182;-60
2022/04/22 06:32:34;;;;;;;8.07;6.03;;;;;;;11.02;100.00;94050.22;5034785;28;20206;-62
2022/04/22 06:35:01;;;;;;;8.97;5.67;;;;;;;11.00;100.00;94057.19;5034491;28;20695;-63
2022/04/22 06:37:48;;;;;;;8.83;5.87;;;;;;;11.00;100.00;94044.47;5034569;28;20205;-63
2022/04/22 06:45:46;;;;;;;9.03;6.30;;;;;;;11.13;100.00;94062.69;5034856;28;20220;-63
2022/04/22 06:48:18;;;;;;;9.93;6.43;;;;;;;11.14;100.00;94043.94;5034260;28;20252;-62
2022/04/22 06:50:47;;;;;;;9.30;6.13;;;;;;;11.26;100.00;94050.41;5034657;28;20274;-63
2022/04/22 06:53:14;;;;;;;8.33;6.60;;;;;;;11.36;100.00;94051.09;5035002;28;20212;-61
2022/04/22 06:55:40;;;;;;;7.87;4.97;;;;;;;11.44;100.00;94102.06;5033193;28;20225;-60
2022/04/22 06:58:11;;;;;;;10.53;5.90;;;;;;;11.43;100.00;94069.13;5034140;28;20202;-62
2022/04/22 07:00:37;;;;;;;7.50;5.43;;;;;;;11.41;100.00;94066.69;5034448;28;20647;-61
2022/04/22 07:03:04;;;;;;;8.67;5.97;;;;;;;11.43;100.00;94043.66;5034428;28;20206;-61
2022/04/22 07:05:32;;;;;;;6.33;5.33;;;;;;;11.50;100.00;94054.84;5033681;28;20220;-62
2022/04/22 07:07:59;;;;;;;8.27;6.20;;;;;;;11.55;100.00;94045.00;5032814;28;20217;-62
2022/04/22 07:10:25;;;;;;;8.10;5.63;;;;;;;11.67;100.00;94049.75;5034150;28;20182;-60
2022/04/22 07:12:50;;;;;;;9.27;5.97;;;;;;;11.65;100.00;94050.81;5034073;28;20202;-61
2022/04/22 07:15:16;;;;;;;8.37;4.73;;;;;;;11.68;100.00;94064.06;5034066;28;20214;-61
2022/04/22 07:17:42;;;;;;;8.23;5.07;;;;;;;11.82;100.00;94049.16;5033758;28;20245;-60
2022/04/22 07:20:09;;;;;;;7.40;5.70;;;;;;;11.95;100.00;94054.63;5033776;28;20190;-61
2022/04/22 07:22:39;;;;;;;6.13;4.93;;;;;;;12.03;100.00;94047.81;5032590;28;20203;-63
2022/04/22 07:25:07;;;;;;;7.07;5.03;;;;;;;12.26;100.00;94086.28;5033738;28;20186;-62
2022/04/22 07:27:34;;;;;;;6.03;4.80;;;;;;;12.33;100.00;94121.19;5034550;28;20226;-62
2022/04/22 07:30:00;;;;;;;5.20;4.70;;;;;;;12.40;100.00;94098.44;5033658;28;20159;-62
2022/04/22 07:32:26;;;;;;;9.70;5.87;;;;;;;12.48;100.00;94067.88;5033388;28;20205;-62
2022/04/22 07:34:54;;;;;;;9.57;6.53;;;;;;;12.62;100.00;94049.44;5033361;28;20206;-61
2022/04/22 07:37:20;;;;;;;8.40;5.90;;;;;;;12.84;100.00;94053.13;5033666;28;20214;-64
2022/04/22 07:39:45;;;;;;;9.83;5.47;;;;;;;12.98;100.00;94076.25;5033592;28;20182;-63
2022/04/22 07:42:17;;;;;;;8.40;6.53;;;;;;;13.07;100.00;94052.34;5033666;28;20276;-62
2022/04/22 07:47:38;;;;;;;6.87;5.50;;;;;;;13.40;100.00;94050.59;5033995;28;20216;-62
2022/04/22 07:50:05;;;;;;;7.10;5.60;;;;;;;13.51;100.00;94063.03;5032318;28;20276;-63
2022/04/22 07:52:33;;;;;;;9.37;5.63;;;;;;;13.70;100.00;94067.78;5033478;28;20229;-62
2022/04/22 07:54:59;;;;;;;10.93;5.50;;;;;;;13.73;100.00;94097.31;5038648;23;20229;-61
2022/04/22 07:57:24;;;;;;;10.43;7.23;;;;;;;13.64;100.00;94109.28;5037733;28;20656;-65
2022/04/22 07:59:50;;;;;;;8.17;5.17;;;;;;;13.42;100.00;94075.00;5032941;28;20193;-65
2022/04/22 08:02:16;;;;;;;7.00;4.67;;;;;;;13.70;100.00;94072.88;5032878;28;20221;-60
2022/04/22 08:04:42;;;;;;;6.32;4.80;;;;;;;14.04;100.00;94098.97;5033106;28;20656;-63
2022/04/22 08:07:08;;;;;;;7.63;4.68;;;;;;;14.16;100.00;94104.53;5032980;28;20570;-63
2022/04/22 08:09:34;;;;;;;6.97;4.80;;;;;;;14.34;100.00;94112.03;5040371;23;20229;-61
2022/04/22 08:12:00;;;;;;;8.27;4.55;;;;;;;14.47;100.00;94127.63;5033168;28;20660;-63
2022/04/22 08:14:27;;;;;;;7.03;4.85;;;;;;;14.65;100.00;94126.44;5032054;28;20182;-63
2022/04/22 08:16:54;;;;;;;4.90;3.80;;;;;;;14.30;98.02;94178.06;5032565;28;20213;-62
2022/04/22 08:19:26;;;;;;;6.72;4.75;;;;;;;14.33;98.18;94157.25;5033197;28;20277;-63
2022/04/22 08:21:52;;;;;;;5.93;4.10;;;;;;;14.62;98.92;94138.78;5032314;28;20202;-62
2022/04/22 08:24:18;;;;;;;8.33;4.80;;;;;;;14.67;100.00;94098.91;5033021;28;20205;-62
2022/04/22 08:26:44;;;;;;;7.75;4.53;;;;;;;14.61;100.00;94107.25;5032837;28;20683;-63
2022/04/22 08:29:09;;;;;;;4.85;3.67;;;;;;;14.55;99.33;94118.16;5033033;28;20197;-61
2022/04/22 08:31:35;;;;;;;14.93;6.40;;;;;;;14.74;100.00;94110.09;5032955;28;20261;-63
2022/04/22 08:34:00;;;;;;;10.55;6.07;;;;;;;14.93;100.00;94098.59;5033005;28;20207;-61
2022/04/22 08:36:30;;;;;;;13.73;6.35;;;;;;;15.24;98.79;94145.47;5030830;28;20228;-62
2022/04/22 08:38:59;;;;;;;14.93;5.22;;;;;;;15.25;94.15;94190.56;5032352;28;20183;-63
2022/04/22 08:41:26;;;;;;;12.15;5.00;;;;;;;15.37;96.54;94124.41;5032647;28;20178;-60
2022/04/22 08:43:56;;;;;;;6.53;3.97;;;;;;;15.43;92.85;94174.97;5030991;28;20268;-61
2022/04/22 08:51:58;;;;;;;10.00;3.95;;;;;;;15.64;91.02;94157.19;5032181;28;20228;-61
2022/04/22 08:54:27;;;;;;;7.40;4.03;;;;;;;15.77;89.74;94170.22;5032470;28;20206;-64
2022/04/22 08:56:54;;;;;;;5.75;3.90;;;;;;;16.01;96.26;94053.84;5033902;28;20222;-63
2022/04/22 08:59:19;;;;;;;13.55;3.97;;;;;;;16.16;91.45;94139.28;5032606;28;20629;-63
2022/04/22 09:01:45;;;;;;;4.07;3.63;;;;;;;16.36;93.54;94096.72;5032397;28;20233;-62
2022/04/22 09:04:11;;;;;;;8.10;3.90;;;;;;;16.67;94.70;94077.56;5032680;28;20603;-63
2022/04/22 09:06:37;;;;;;;6.60;3.75;;;;;;;17.00;92.47;94108.75;5031128;28;20294;-62
2022/04/22 09:09:07;;;;;;;7.32;3.65;;;;;;;17.09;90.43;94141.03;5031473;28;20210;-62
2022/04/22 09:11:42;;;;;;;4.32;3.88;;;;;;;17.36;93.90;94057.31;5031268;28;20198;-62
2022/04/22 09:14:08;;;;;;;6.65;3.60;;;;;;;17.30;89.57;94137.69;5032123;28;20178;-62
2022/04/22 09:16:33;;;;;;;5.88;3.15;;;;;;;17.21;89.15;94131.09;5038479;23;20224;-62
2022/04/22 09:19:00;;;;;;;5.95;3.28;;;;;;;17.39;89.38;94116.81;5033263;28;20249;-64
2022/04/22 09:21:26;;;;;;;8.13;4.38;;;;;;;17.61;87.46;94143.34;5032792;28;20186;-62
2022/04/22 09:23:53;;;;;;;5.18;3.95;;;;;;;17.46;82.34;94155.44;5032260;28;20186;-64
2022/04/22 09:26:30;;;;;;;7.80;4.00;;;;;;;18.25;93.31;94000.72;5032196;28;20190;-64
2022/04/22 09:29:05;;;;;;;5.07;3.63;;;;;;;18.31;80.66;94131.22;5035428;28;20204;-64
2022/04/22 09:31:45;;;;;;;7.40;3.88;;;;;;;18.67;78.94;94135.34;5035714;28;20206;-63
2022/04/22 09:34:10;;;;;;;4.68;3.88;;;;;;;18.81;72.56;94222.81;5035813;28;20655;-62
2022/04/22 09:45:04;;;;;;;5.03;3.35;;;;;;;19.88;61.62;94296.03;5035706;28;20169;-64
2022/04/22 09:47:32;;;;;;;5.63;3.63;;;;;;;19.85;61.19;94273.19;5035554;28;20233;-62
2022/04/22 09:49:59;;;;;;;8.50;3.95;;;;;;;20.03;65.39;94159.88;5035344;28;20257;-60
2022/04/22 09:52:34;;;;;;;5.10;3.47;;;;;;;20.20;65.46;94155.13;5035435;28;20233;-63
2022/04/22 09:55:06;;;;;;;11.43;3.60;;;;;;;20.36;63.98;94177.97;5033948;28;20255;-62
2022/04/22 09:57:52;;;;;;;6.97;3.58;;;;;;;20.55;61.89;94195.19;5035426;28;20210;-63
2022/04/22 10:00:18;;;;;;;5.28;3.58;;;;;;;20.81;60.77;94208.06;5034984;28;20687;-63
2022/04/22 10:02:49;;;;;;;10.32;4.03;;;;;;;21.12;59.51;94212.56;5035471;28;20260;-63
2022/04/22 10:05:18;;;;;;;9.75;4.18;;;;;;;21.37;60.76;94172.84;5035185;28;20652;-63
2022/04/22 10:07:44;;;;;;;11.85;5.07;;;;;;;21.22;59.08;94195.63;5034798;28;20213;-62
2022/04/22 10:10:11;;;;;;;14.82;4.75;;;;;;;21.27;58.77;94171.75;5035028;28;20661;-62
2022/04/22 10:12:38;;;;;;;9.05;4.43;;;;;;;21.46;58.76;94194.91;5035020;28;20293;-62
2022/04/22 10:15:09;;;;;;;9.70;4.53;;;;;;;21.67;58.70;94170.53;5034495;28;20260;-62
2022/04/22 10:17:37;;;;;;;8.50;4.20;;;;;;;21.66;55.78;94226.66;5034848;28;20206;-60
2022/04/22 10:20:07;;;;;;;8.70;4.20;;;;;;;21.65;55.72;94212.09;5034319;28;20691;-60
2022/04/22 10:22:33;;;;;;;15.23;5.05;;;;;;;21.71;58.64;94114.75;5033130;28;20256;-61
2022/04/22 10:25:02;;;;;;;14.20;4.82;;;;;;;21.79;56.28;94173.22;5034532;28;20186;-60
2022/04/22 10:27:32;;;;;;;6.72;3.58;;;;;;;22.13;59.02;94108.06;5034854;28;20206;-61
2022/04/22 10:29:59;;;;;;;7.55;3.90;;;;;;;22.41;56.12;94163.56;5034423;28;20182;-61
2022/04/22 10:32:27;;;;;;;5.13;3.47;;;;;;;22.50;55.73;94145.97;5034324;28;20206;-60
2022/04/22 10:35:03;;;;;;;10.15;3.90;;;;;;;22.63;55.35;94161.38;5034219;28;20183;-60
2022/04/22 10:37:31;;;;;;;8.32;3.75;;;;;;;22.58;53.92;94176.00;5034872;28;20389;-62
2022/04/22 10:39:57;;;;;;;7.38;3.67;;;;;;;22.74;52.77;94224.69;5033330;28;20182;-64
2022/04/22 10:42:33;;;;;;;8.35;4.22;;;;;;;22.59;53.47;94180.97;5034874;28;20206;-61
2022/04/22 10:47:51;;;;;;;6.47;3.65;;;;;;;23.23;54.53;94133.78;5034977;28;20210;-60
2022/04/22 10:50:29;;;;;;;7.03;3.70;;;;;;;23.43;50.73;94213.97;5034304;28;20178;-59
2022/04/22 10:53:01;;;;;;;9.07;4.20;;;;;;;23.51;51.43;94198.09;5034539;28;20212;-60
2022/04/22 10:55:28;;;;;;;6.78;3.42;;;;;;;23.70;53.86;94106.97;5034153;28;20649;-62
2022/04/22 10:58:13;;;;;;;6.30;3.42;;;;;;;23.81;50.25;94230.03;5039738;23;20222;-60
2022/04/22 11:00:43;;;;;;;6.82;3.25;;;;;;;23.45;52.42;94163.44;5033872;28;20182;-61
2022/04/22 11:03:34;;;;;;;6.90;3.22;;;;;;;23.78;49.44;94222.66;5034348;28;20752;-59
2022/04/22 11:06:01;;;;;;;5.43;3.20;;;;;;;23.67;48.65;94114.41;5034172;28;20178;-61
2022/04/22 11:08:37;;;;;;;3.30;2.90;;;;;;;23.90;50.09;94071.09;5033672;28;20206;-60
2022/04/22 11:11:11;;;;;;;5.70;3.17;;;;;;;23.91;48.28;94079.69;5034227;28;20201;-60
2022/04/22 11:13:38;;;;;;;5.88;3.45;;;;;;;24.35;48.85;94050.53;5034050;28;20226;-61
2022/04/22 11:16:07;;;;;;;7.05;3.25;;;;;;;24.28;49.52;94031.66;5033471;28;20212;-60
2022/04/22 11:18:34;;;;;;;5.00;3.92;;;;;;;24.58;48.49;94052.31;5033829;28;20175;-60
2022/04/22 11:21:04;;;;;;;7.07;2.90;;;;;;;24.37;46.53;94069.28;5032696;28;20190;-62
2022/04/22 11:23:48;;;;;;;5.93;3.35;;;;;;;24.62;46.85;94062.03;5032236;28;20206;-61
2022/04/22 11:26:16;;;;;;;13.90;3.70;;;;;;;25.15;44.04;94105.19;5033722;28;20194;-61
2022/04/22 11:28:44;;;;;;;5.03;3.30;;;;;;;25.30;47.45;94032.59;5033585;28;20668;-61
2022/04/22 11:31:11;;;;;;;4.70;3.00;;;;;;;24.78;46.10;94045.72;5033611;28;20175;-62
2022/04/22 11:33:56;;;;;;;5.43;3.08;;;;;;;24.77;43.00;94100.53;5033446;28;20197;-63
2022/04/22 11:36:24;;;;;;;6.35;3.45;;;;;;;25.10;43.37;94066.06;5033311;28;20301;-62
2022/04/22 11:38:54;;;;;;;6.35;2.92;;;;;;;25.34;44.14;94038.91;5033310;28;20178;-63
2022/04/22 11:41:20;;;;;;;6.47;3.05;;;;;;;25.57;43.43;94054.44;5033381;28;20623;-65
2022/04/22 11:43:46;;;;;;;6.25;2.80;;;;;;;25.90;44.32;94023.16;5032151;28;20182;-64
2022/04/22 11:46:14;;;;;;;6.95;3.55;;;;;;;26.17;46.27;93981.59;5032240;28;20566;-63
2022/04/22 11:48:53;;;;;;;8.60;2.95;;;;;;;25.68;41.21;94056.16;5033685;28;20182;-63
2022/04/22 11:51:19;;;;;;;6.70;3.03;;;;;;;25.52;42.38;94023.88;5032758;28;20197;-63
2022/04/22 11:53:52;;;;;;;8.52;3.15;;;;;;;25.80;42.89;94015.97;5032011;28;20530;-63
2022/04/22 11:56:23;;;;;;;3.03;2.67;;;;;;;25.40;41.70;94011.94;5031701;28;20573;-63
2022/04/22 11:58:56;;;;;;;5.32;3.25;;;;;;;25.67;45.20;93934.78;5033381;28;20246;-63
2022/04/22 12:07:02;;;;;;;7.07;3.17;;;;;;;25.71;41.43;94008.81;5033125;28;20221;-62
2022/04/22 12:09:28;;;;;;;5.40;3.40;;;;;;;25.72;41.87;93994.75;5032824;28;20201;-64
2022/04/22 12:11:57;;;;;;;7.03;3.22;;;;;;;25.34;40.90;94012.88;5033075;28;20198;-65
2022/04/22 12:14:28;;;;;;;4.80;3.00;;;;;;;24.34;42.20;93978.78;5032619;28;20641;-63
2022/04/22 12:17:02;;;;;;;6.93;3.05;;;;;;;24.81;45.32;93911.81;5032391;28;20655;-63
2022/04/22 12:19:29;;;;;;;5.18;3.42;;;;;;;25.01;44.70;93930.38;5033675;28;20189;-63
2022/04/22 12:21:55;;;;;;;6.00;3.55;;;;;;;25.10;44.19;93931.56;5032965;28;20623;-63
2022/04/22 12:24:23;;;;;;;5.18;3.10;;;;;;;25.00;42.76;93949.63;5031249;28;20196;-63
2022/04/22 12:26:51;;;;;;;6.45;2.95;;;;;;;25.41;42.31;93959.66;5033033;28;20214;-63
2022/04/22 12:29:24;;;;;;;7.47;3.38;;;;;;;25.52;42.41;93955.41;5032862;28;20190;-62
2022/04/22 12:31:51;;;;;;;5.20;3.20;;;;;;;25.30;41.83;93955.31;5033183;28;20206;-62
2022/04/22 12:34:32;;;;;;;4.00;2.90;;;;;;;25.17;45.72;93861.16;5031574;28;20269;-63